createdAt,value
2017-10-01T00:00:13.933Z,13.03
2017-10-01T00:01:24.179Z,13.11
2017-10-01T00:02:34.441Z,13.12
2017-10-01T00:03:44.698Z,13.13
2017-10-01T00:04:54.950Z,13.05
2017-10-01T00:06:05.189Z,13.09
2017-10-01T00:07:15.134Z,13.09
2017-10-01T00:08:25.380Z,13.05
2017-10-01T00:09:35.623Z,13.02
2017-10-01T00:10:45.894Z,13.01
2017-10-01T00:11:55.838Z,13.02
2017-10-01T00:13:05.461Z,13.02
2017-10-01T00:14:15.728Z,12.93
2017-10-01T00:15:25.970Z,12.95
2017-10-01T00:16:36.220Z,12.93
2017-10-01T00:17:46.462Z,12.98
2017-10-01T00:18:56.751Z,12.99
2017-10-01T00:20:06.683Z,12.88
2017-10-01T00:21:16.619Z,12.88
2017-10-01T00:22:26.875Z,12.98
2017-10-01T00:23:36.818Z,12.98
2017-10-01T00:24:47.082Z,12.9
2017-10-01T00:25:57.016Z,12.88
2017-10-01T00:27:06.960Z,12.91
2017-10-01T00:28:16.897Z,12.87
2017-10-01T00:29:27.141Z,12.84
2017-10-01T00:30:37.070Z,12.9
2017-10-01T00:31:47.003Z,12.99
2017-10-01T00:32:57.253Z,12.93
2017-10-01T00:34:07.184Z,12.93
2017-10-01T00:35:17.448Z,12.98
2017-10-01T00:36:27.376Z,12.94
2017-10-01T00:37:37.301Z,13.01
2017-10-01T00:38:47.549Z,12.95
2017-10-01T00:39:57.830Z,12.91
2017-10-01T00:41:08.075Z,12.9
2017-10-01T00:42:18.013Z,12.91
2017-10-01T00:43:28.267Z,12.91
2017-10-01T00:44:38.535Z,12.81
2017-10-01T00:45:48.465Z,12.86
2017-10-01T00:46:58.402Z,12.87
2017-10-01T00:48:08.644Z,12.88
2017-10-01T00:49:18.578Z,12.87
2017-10-01T00:50:28.503Z,12.83
2017-10-01T00:51:38.753Z,12.78
2017-10-01T00:52:49.019Z,12.8
2017-10-01T00:53:58.946Z,12.88
2017-10-01T00:55:08.889Z,12.84
2017-10-01T00:56:18.818Z,12.75
2017-10-01T00:57:29.081Z,12.75
2017-10-01T00:58:39.327Z,12.76
2017-10-01T00:59:49.264Z,12.72
2017-10-01T01:00:59.516Z,12.76
2017-10-01T01:02:09.912Z,12.72
2017-10-01T01:03:19.519Z,12.75
2017-10-01T01:04:29.904Z,12.76
2017-10-01T01:05:40.164Z,12.73
2017-10-01T01:06:50.423Z,12.76
2017-10-01T01:08:00.360Z,12.73
2017-10-01T01:09:10.605Z,12.76
2017-10-01T01:10:20.845Z,12.69
2017-10-01T01:11:30.776Z,12.65
2017-10-01T01:12:41.034Z,12.63
2017-10-01T01:13:51.284Z,12.7
2017-10-01T01:15:01.541Z,12.61
2017-10-01T01:16:11.475Z,12.63
2017-10-01T01:17:21.714Z,12.62
2017-10-01T01:18:31.651Z,12.62
2017-10-01T01:19:41.592Z,12.61
2017-10-01T01:20:51.848Z,12.62
2017-10-01T01:22:02.102Z,12.62
2017-10-01T01:23:12.365Z,12.51
2017-10-01T01:24:22.614Z,12.51
2017-10-01T01:25:32.549Z,12.5
2017-10-01T01:26:42.474Z,12.54
2017-10-01T01:27:52.728Z,12.55
2017-10-01T01:29:02.974Z,12.5
2017-10-01T01:30:12.911Z,12.51
2017-10-01T01:31:22.853Z,12.47
2017-10-01T01:32:32.476Z,12.45
2017-10-01T01:33:42.412Z,12.4
2017-10-01T01:34:52.350Z,12.36
2017-10-01T01:36:02.600Z,12.36
2017-10-01T01:37:12.870Z,12.45
2017-10-01T01:38:22.797Z,12.32
2017-10-01T01:39:33.079Z,12.3
2017-10-01T01:40:43.327Z,12.43
2017-10-01T01:41:53.591Z,12.33
2017-10-01T01:43:03.839Z,12.35
2017-10-01T01:44:14.093Z,12.36
2017-10-01T01:45:24.021Z,12.29
2017-10-01T01:46:34.292Z,12.36
2017-10-01T01:47:44.216Z,12.32
2017-10-01T01:48:54.149Z,12.32
2017-10-01T01:50:04.073Z,12.35
2017-10-01T01:51:14.324Z,12.32
2017-10-01T01:52:24.262Z,12.37
2017-10-01T01:53:34.198Z,12.3
2017-10-01T01:54:43.834Z,12.33
2017-10-01T01:55:53.762Z,12.32
2017-10-01T01:57:03.694Z,12.4
2017-10-01T01:58:13.933Z,12.35
2017-10-01T01:59:23.858Z,12.35
2017-10-01T02:00:34.108Z,12.35
2017-10-01T02:01:44.361Z,12.33
2017-10-01T02:02:54.613Z,12.25
2017-10-01T02:04:04.862Z,12.33
2017-10-01T02:05:14.484Z,12.26
2017-10-01T02:06:24.740Z,12.18
2017-10-01T02:07:34.985Z,12.28
2017-10-01T02:08:44.923Z,12.29
2017-10-01T02:09:55.181Z,12.23
2017-10-01T02:11:05.417Z,12.23
2017-10-01T02:12:15.348Z,12.21
2017-10-01T02:13:25.300Z,12.17
2017-10-01T02:14:35.548Z,12.18
2017-10-01T02:15:45.788Z,12.25
2017-10-01T02:16:55.721Z,12.17
2017-10-01T02:18:05.981Z,12.2
2017-10-01T02:19:16.226Z,12.14
2017-10-01T02:20:26.161Z,12.17
2017-10-01T02:21:36.417Z,12.11
2017-10-01T02:22:46.364Z,12.14
2017-10-01T02:23:56.614Z,12.03
2017-10-01T02:25:06.553Z,12.15
2017-10-01T02:26:16.489Z,12.08
2017-10-01T02:27:26.751Z,12.07
2017-10-01T02:28:36.697Z,11.96
2017-10-01T02:29:46.949Z,11.97
2017-10-01T02:30:56.884Z,12.08
2017-10-01T02:32:07.141Z,12.02
2017-10-01T02:33:17.388Z,12.02
2017-10-01T02:34:27.637Z,12.02
2017-10-01T02:35:37.578Z,11.97
2017-10-01T02:36:47.841Z,12.03
2017-10-01T02:37:58.109Z,11.95
2017-10-01T02:39:08.361Z,12.03
2017-10-01T02:40:18.290Z,11.97
2017-10-01T02:41:28.221Z,12.03
2017-10-01T02:42:38.163Z,12
2017-10-01T02:43:48.410Z,12.02
2017-10-01T02:44:58.365Z,12.03
2017-10-01T02:46:08.623Z,12.07
2017-10-01T02:47:18.562Z,11.99
2017-10-01T02:48:28.816Z,12.05
2017-10-01T02:49:38.756Z,12.02
2017-10-01T02:50:48.697Z,12.05
2017-10-01T02:51:58.645Z,12
2017-10-01T02:53:08.914Z,12.07
2017-10-01T02:54:18.845Z,12.02
2017-10-01T02:55:29.094Z,12.02
2017-10-01T02:56:39.029Z,11.93
2017-10-01T02:57:48.653Z,11.99
2017-10-01T02:58:58.909Z,12.05
2017-10-01T03:00:09.158Z,12.03
2017-10-01T03:01:19.398Z,11.97
2017-10-01T03:02:29.642Z,12.03
2017-10-01T03:03:39.901Z,11.93
2017-10-01T03:04:50.155Z,11.93
2017-10-01T03:06:00.426Z,11.99
2017-10-01T03:07:10.668Z,12
2017-10-01T03:08:20.921Z,11.95
2017-10-01T03:09:30.858Z,11.99
2017-10-01T03:10:41.112Z,11.97
2017-10-01T03:11:51.043Z,11.93
2017-10-01T03:13:00.658Z,11.96
2017-10-01T03:14:10.917Z,11.91
2017-10-01T03:15:21.165Z,11.97
2017-10-01T03:16:31.098Z,11.91
2017-10-01T03:17:41.030Z,11.89
2017-10-01T03:18:50.960Z,11.89
2017-10-01T03:20:00.907Z,11.95
2017-10-01T03:21:10.844Z,11.97
2017-10-01T03:22:20.777Z,11.95
2017-10-01T03:23:31.021Z,11.91
2017-10-01T03:24:41.260Z,12
2017-10-01T03:25:51.198Z,12.02
2017-10-01T03:27:01.438Z,11.97
2017-10-01T03:28:11.690Z,12.03
2017-10-01T03:29:21.933Z,11.95
2017-10-01T03:30:31.874Z,11.97
2017-10-01T03:31:42.125Z,12
2017-10-01T03:32:52.361Z,12.03
2017-10-01T03:34:02.599Z,12.03
2017-10-01T03:35:12.845Z,12.03
2017-10-01T03:36:22.778Z,11.99
2017-10-01T03:37:32.706Z,12.02
2017-10-01T03:38:42.644Z,11.99
2017-10-01T03:39:52.882Z,12
2017-10-01T03:41:02.810Z,11.97
2017-10-01T03:42:13.058Z,12.07
2017-10-01T03:43:23.314Z,12
2017-10-01T03:44:33.551Z,11.97
2017-10-01T03:45:43.498Z,12.03
2017-10-01T03:46:53.112Z,12
2017-10-01T03:48:03.356Z,11.97
2017-10-01T03:49:13.289Z,11.99
2017-10-01T03:50:23.540Z,11.91
2017-10-01T03:51:33.799Z,11.95
2017-10-01T03:52:43.729Z,11.93
2017-10-01T03:53:53.980Z,11.95
2017-10-01T03:55:04.232Z,11.86
2017-10-01T03:56:14.494Z,11.89
2017-10-01T03:57:24.757Z,11.93
2017-10-01T03:58:34.378Z,11.86
2017-10-01T03:59:44.306Z,11.91
2017-10-01T04:00:54.550Z,11.91
2017-10-01T04:02:04.797Z,11.86
2017-10-01T04:03:14.099Z,11.81
2017-10-01T04:04:24.355Z,11.97
2017-10-01T04:05:33.975Z,11.89
2017-10-01T04:06:43.922Z,11.89
2017-10-01T04:07:54.170Z,11.86
2017-10-01T04:09:04.413Z,11.86
2017-10-01T04:10:14.662Z,11.93
2017-10-01T04:11:23.970Z,11.85
2017-10-01T04:12:33.587Z,11.86
2017-10-01T04:13:43.847Z,11.83
2017-10-01T04:14:54.108Z,11.83
2017-10-01T04:16:04.046Z,11.85
2017-10-01T04:17:14.306Z,11.91
2017-10-01T04:18:24.269Z,11.81
2017-10-01T04:19:34.528Z,11.76
2017-10-01T04:20:44.781Z,11.81
2017-10-01T04:21:55.045Z,11.76
2017-10-01T04:23:05.317Z,11.88
2017-10-01T04:24:15.243Z,11.76
2017-10-01T04:25:25.185Z,11.86
2017-10-01T04:26:35.431Z,11.78
2017-10-01T04:27:45.672Z,11.74
2017-10-01T04:28:55.912Z,11.8
2017-10-01T04:30:06.160Z,11.74
2017-10-01T04:31:16.417Z,11.86
2017-10-01T04:32:26.661Z,11.81
2017-10-01T04:33:36.604Z,11.73
2017-10-01T04:34:46.852Z,11.77
2017-10-01T04:35:57.099Z,11.85
2017-10-01T04:37:07.339Z,11.74
2017-10-01T04:38:17.589Z,11.74
2017-10-01T04:39:27.846Z,11.77
2017-10-01T04:40:38.118Z,11.71
2017-10-01T04:41:48.049Z,11.8
2017-10-01T04:42:58.297Z,11.73
2017-10-01T04:44:08.541Z,11.74
2017-10-01T04:45:18.475Z,11.7
2017-10-01T04:46:28.403Z,11.67
2017-10-01T04:47:38.338Z,11.7
2017-10-01T04:48:48.271Z,11.62
2017-10-01T04:49:58.530Z,11.68
2017-10-01T04:51:08.469Z,11.62
2017-10-01T04:52:18.404Z,11.63
2017-10-01T04:53:28.652Z,11.62
2017-10-01T04:54:38.897Z,11.55
2017-10-01T04:55:49.143Z,11.6
2017-10-01T04:56:58.753Z,11.53
2017-10-01T04:58:09.006Z,11.58
2017-10-01T04:59:19.254Z,11.51
2017-10-01T05:00:29.519Z,11.6
2017-10-01T05:01:39.791Z,11.58
2017-10-01T05:02:50.040Z,11.51
2017-10-01T05:04:00.505Z,11.51
2017-10-01T05:05:10.760Z,11.55
2017-10-01T05:06:20.686Z,11.48
2017-10-01T05:07:30.932Z,11.53
2017-10-01T05:08:40.875Z,11.45
2017-10-01T05:09:50.804Z,11.48
2017-10-01T05:11:00.736Z,11.55
2017-10-01T05:12:10.980Z,11.55
2017-10-01T05:13:20.935Z,11.58
2017-10-01T05:14:30.862Z,11.48
2017-10-01T05:15:40.785Z,11.53
2017-10-01T05:16:50.722Z,11.45
2017-10-01T05:18:00.971Z,11.53
2017-10-01T05:19:11.156Z,11.45
2017-10-01T05:20:21.396Z,11.45
2017-10-01T05:21:31.332Z,11.56
2017-10-01T05:22:40.950Z,11.53
2017-10-01T05:23:51.187Z,11.49
2017-10-01T05:25:00.802Z,11.48
2017-10-01T05:26:11.078Z,11.51
2017-10-01T05:27:21.331Z,11.52
2017-10-01T05:28:31.583Z,11.55
2017-10-01T05:29:41.841Z,11.55
2017-10-01T05:30:51.780Z,11.52
2017-10-01T05:32:02.020Z,11.52
2017-10-01T05:33:12.267Z,11.55
2017-10-01T05:34:22.508Z,11.48
2017-10-01T05:35:32.440Z,11.48
2017-10-01T05:36:42.377Z,11.45
2017-10-01T05:37:52.620Z,11.48
2017-10-01T05:39:02.865Z,11.51
2017-10-01T05:40:12.802Z,11.45
2017-10-01T05:41:23.048Z,11.53
2017-10-01T05:42:33.296Z,11.51
2017-10-01T05:43:43.556Z,11.53
2017-10-01T05:44:53.489Z,11.51
2017-10-01T05:46:03.425Z,11.48
2017-10-01T05:47:13.352Z,11.44
2017-10-01T05:48:23.595Z,11.45
2017-10-01T05:49:33.841Z,11.53
2017-10-01T05:50:44.084Z,11.43
2017-10-01T05:51:54.337Z,11.51
2017-10-01T05:53:04.580Z,11.49
2017-10-01T05:54:14.823Z,11.49
2017-10-01T05:55:25.065Z,11.43
2017-10-01T05:56:34.995Z,11.48
2017-10-01T05:57:44.927Z,11.45
2017-10-01T05:58:54.869Z,11.44
2017-10-01T06:00:05.125Z,11.48
2017-10-01T06:01:15.375Z,11.45
2017-10-01T06:02:25.632Z,11.48
2017-10-01T06:03:35.880Z,11.45
2017-10-01T06:04:46.126Z,11.43
2017-10-01T06:05:56.378Z,11.52
2017-10-01T06:07:06.628Z,11.44
2017-10-01T06:08:16.555Z,11.45
2017-10-01T06:09:26.805Z,11.41
2017-10-01T06:10:37.055Z,11.43
2017-10-01T06:11:47.301Z,11.44
2017-10-01T06:12:57.542Z,11.55
2017-10-01T06:14:07.830Z,11.58
2017-10-01T06:15:18.090Z,11.56
2017-10-01T06:16:28.337Z,11.52
2017-10-01T06:17:38.586Z,11.52
2017-10-01T06:18:48.831Z,11.52
2017-10-01T06:19:58.446Z,11.55
2017-10-01T06:21:08.688Z,11.59
2017-10-01T06:22:18.616Z,11.55
2017-10-01T06:23:28.552Z,11.52
2017-10-01T06:24:38.834Z,11.48
2017-10-01T06:25:49.093Z,11.48
2017-10-01T06:26:59.022Z,11.45
2017-10-01T06:28:09.271Z,11.44
2017-10-01T06:29:19.516Z,11.44
2017-10-01T06:30:29.768Z,11.48
2017-10-01T06:31:39.691Z,11.49
2017-10-01T06:32:49.941Z,11.56
2017-10-01T06:33:59.873Z,11.58
2017-10-01T06:35:09.856Z,11.56
2017-10-01T06:36:20.115Z,11.53
2017-10-01T06:37:30.060Z,11.59
2017-10-01T06:38:40.311Z,11.62
2017-10-01T06:39:50.247Z,11.63
2017-10-01T06:41:00.485Z,11.71
2017-10-01T06:42:10.740Z,11.78
2017-10-01T06:43:20.989Z,11.74
2017-10-01T06:44:30.915Z,11.8
2017-10-01T06:45:41.186Z,11.77
2017-10-01T06:46:51.106Z,11.97
2017-10-01T06:48:01.352Z,11.91
2017-10-01T06:49:11.291Z,11.93
2017-10-01T06:50:21.541Z,11.89
2017-10-01T06:51:31.478Z,11.86
2017-10-01T06:52:41.717Z,11.89
2017-10-01T06:53:51.972Z,11.89
2017-10-01T06:55:02.220Z,11.96
2017-10-01T06:56:12.486Z,11.93
2017-10-01T06:57:22.724Z,11.95
2017-10-01T06:58:32.972Z,11.99
2017-10-01T06:59:43.212Z,11.99
2017-10-01T07:00:53.465Z,11.88
2017-10-01T07:02:03.409Z,11.99
2017-10-01T07:03:13.346Z,12.03
2017-10-01T07:04:23.276Z,11.91
2017-10-01T07:05:33.537Z,11.97
2017-10-01T07:06:43.471Z,11.99
2017-10-01T07:07:53.720Z,11.97
2017-10-01T07:09:03.655Z,11.96
2017-10-01T07:10:13.587Z,11.91
2017-10-01T07:11:23.538Z,11.86
2017-10-01T07:12:33.786Z,11.85
2017-10-01T07:13:44.034Z,11.89
2017-10-01T07:14:54.300Z,11.89
2017-10-01T07:16:04.553Z,11.96
2017-10-01T07:17:14.499Z,11.91
2017-10-01T07:18:25.556Z,11.88
2017-10-01T07:19:35.820Z,11.93
2017-10-01T07:20:46.082Z,12
2017-10-01T07:21:56.023Z,11.89
2017-10-01T07:23:06.283Z,11.85
2017-10-01T07:24:16.565Z,11.76
2017-10-01T07:25:26.183Z,11.81
2017-10-01T07:26:36.112Z,11.74
2017-10-01T07:27:46.367Z,11.74
2017-10-01T07:28:56.618Z,11.83
2017-10-01T07:30:06.867Z,11.8
2017-10-01T07:31:17.123Z,11.78
2017-10-01T07:32:27.377Z,11.77
2017-10-01T07:33:37.622Z,11.76
2017-10-01T07:34:47.561Z,11.78
2017-10-01T07:35:57.810Z,11.78
2017-10-01T07:37:07.429Z,11.89
2017-10-01T07:38:17.677Z,12
2017-10-01T07:39:27.608Z,11.86
2017-10-01T07:40:37.858Z,11.96
2017-10-01T07:41:47.794Z,11.93
2017-10-01T07:42:57.752Z,11.96
2017-10-01T07:44:07.699Z,12
2017-10-01T07:45:17.970Z,11.97
2017-10-01T07:46:27.917Z,11.93
2017-10-01T07:47:38.169Z,11.96
2017-10-01T07:48:48.108Z,11.91
2017-10-01T07:49:58.374Z,11.95
2017-10-01T07:51:08.629Z,11.99
2017-10-01T07:52:18.876Z,12
2017-10-01T07:53:29.133Z,11.96
2017-10-01T07:54:39.387Z,12.05
2017-10-01T07:55:49.635Z,11.99
2017-10-01T07:56:59.897Z,11.96
2017-10-01T07:58:09.832Z,12.05
2017-10-01T07:59:20.112Z,11.99
2017-10-01T08:00:30.044Z,11.99
2017-10-01T08:01:39.996Z,11.85
2017-10-01T08:02:49.935Z,11.95
2017-10-01T08:04:00.223Z,11.83
2017-10-01T08:05:10.476Z,11.89
2017-10-01T08:06:20.726Z,11.76
2017-10-01T08:07:30.655Z,11.78
2017-10-01T08:08:40.587Z,11.7
2017-10-01T08:09:50.828Z,11.86
2017-10-01T08:11:00.774Z,11.71
2017-10-01T08:12:11.017Z,11.7
2017-10-01T08:13:21.275Z,11.76
2017-10-01T08:14:31.539Z,11.74
2017-10-01T08:15:41.470Z,11.68
2017-10-01T08:16:51.403Z,11.56
2017-10-01T08:18:01.347Z,11.51
2017-10-01T08:19:11.611Z,11.52
2017-10-01T08:20:21.853Z,11.49
2017-10-01T08:21:32.112Z,11.48
2017-10-01T08:22:41.741Z,11.44
2017-10-01T08:23:51.992Z,11.41
2017-10-01T08:25:02.246Z,11.43
2017-10-01T08:26:12.495Z,11.48
2017-10-01T08:27:22.757Z,11.51
2017-10-01T08:28:32.682Z,11.52
2017-10-01T08:29:42.930Z,11.49
2017-10-01T08:30:53.190Z,11.49
2017-10-01T08:32:03.430Z,11.44
2017-10-01T08:33:13.368Z,11.45
2017-10-01T08:34:23.625Z,11.48
2017-10-01T08:35:33.878Z,11.44
2017-10-01T08:36:43.819Z,11.45
2017-10-01T08:37:54.054Z,11.4
2017-10-01T08:39:04.308Z,11.43
2017-10-01T08:40:14.587Z,11.48
2017-10-01T08:41:24.835Z,11.52
2017-10-01T08:42:35.086Z,11.49
2017-10-01T08:43:45.022Z,11.44
2017-10-01T08:44:55.258Z,11.52
2017-10-01T08:46:05.525Z,11.43
2017-10-01T08:47:15.171Z,11.45
2017-10-01T08:48:25.432Z,11.51
2017-10-01T08:49:35.379Z,11.49
2017-10-01T08:50:45.321Z,11.44
2017-10-01T08:51:55.251Z,11.51
2017-10-01T08:53:04.552Z,11.44
2017-10-01T08:54:14.814Z,11.51
2017-10-01T08:55:25.091Z,11.62
2017-10-01T08:56:35.347Z,11.58
2017-10-01T08:57:45.288Z,11.45
2017-10-01T08:58:55.221Z,11.49
2017-10-01T09:00:05.494Z,11.45
2017-10-01T09:01:15.754Z,11.38
2017-10-01T09:02:26.018Z,11.43
2017-10-01T09:03:36.270Z,11.35
2017-10-01T09:04:46.527Z,11.23
2017-10-01T09:05:56.464Z,11.31
2017-10-01T09:07:06.710Z,11.35
2017-10-01T09:08:16.973Z,11.43
2017-10-01T09:09:26.916Z,11.45
2017-10-01T09:10:37.184Z,11.52
2017-10-01T09:11:47.439Z,11.52
2017-10-01T09:12:57.683Z,11.52
2017-10-01T09:14:07.639Z,11.49
2017-10-01T09:15:17.569Z,11.4
2017-10-01T09:16:27.834Z,11.43
2017-10-01T09:17:38.086Z,11.51
2017-10-01T09:18:48.026Z,11.51
2017-10-01T09:19:58.508Z,11.55
2017-10-01T09:21:08.766Z,11.48
2017-10-01T09:22:19.017Z,11.53
2017-10-01T09:23:28.956Z,11.45
2017-10-01T09:24:39.221Z,11.45
2017-10-01T09:25:49.473Z,11.48
2017-10-01T09:26:59.417Z,11.48
2017-10-01T09:28:09.671Z,11.49
2017-10-01T09:29:19.937Z,11.49
2017-10-01T09:30:29.868Z,11.51
2017-10-01T09:31:40.122Z,11.55
2017-10-01T09:32:50.396Z,11.55
2017-10-01T09:34:00.366Z,11.65
2017-10-01T09:35:10.301Z,11.62
2017-10-01T09:36:20.227Z,11.67
2017-10-01T09:37:30.163Z,11.67
2017-10-01T09:38:40.419Z,11.68
2017-10-01T09:39:50.672Z,11.81
2017-10-01T09:41:00.912Z,11.85
2017-10-01T09:42:11.180Z,11.89
2017-10-01T09:43:21.452Z,11.85
2017-10-01T09:44:31.717Z,11.83
2017-10-01T09:45:41.980Z,11.76
2017-10-01T09:46:52.244Z,11.83
2017-10-01T09:48:02.493Z,11.81
2017-10-01T09:49:12.115Z,11.86
2017-10-01T09:50:22.372Z,11.83
2017-10-01T09:51:32.312Z,11.73
2017-10-01T09:52:42.249Z,11.91
2017-10-01T09:53:52.495Z,11.83
2017-10-01T09:55:02.759Z,11.91
2017-10-01T09:56:13.010Z,11.91
2017-10-01T09:57:22.947Z,11.91
2017-10-01T09:58:33.195Z,11.99
2017-10-01T09:59:43.457Z,12.07
2017-10-01T10:00:53.745Z,11.97
2017-10-01T10:02:03.676Z,12.08
2017-10-01T10:03:13.926Z,12.07
2017-10-01T10:04:24.181Z,12.15
2017-10-01T10:05:34.431Z,12.2
2017-10-01T10:06:44.685Z,12.18
2017-10-01T10:07:54.939Z,12.25
2017-10-01T10:09:04.880Z,12.33
2017-10-01T10:10:15.134Z,12.33
2017-10-01T10:11:25.383Z,12.32
2017-10-01T10:12:35.649Z,12.36
2017-10-01T10:13:45.908Z,12.55
2017-10-01T10:14:56.159Z,12.51
2017-10-01T10:16:06.414Z,12.51
2017-10-01T10:17:16.668Z,12.61
2017-10-01T10:18:26.948Z,12.66
2017-10-01T10:19:37.204Z,12.63
2017-10-01T10:20:47.133Z,12.76
2017-10-01T10:21:56.764Z,12.58
2017-10-01T10:23:06.696Z,12.76
2017-10-01T10:24:16.964Z,12.87
2017-10-01T10:25:27.217Z,12.83
2017-10-01T10:26:37.147Z,12.86
2017-10-01T10:27:47.395Z,12.81
2017-10-01T10:28:57.344Z,12.98
2017-10-01T10:30:07.609Z,12.86
2017-10-01T10:31:17.540Z,13.03
2017-10-01T10:32:27.521Z,12.91
2017-10-01T10:33:37.777Z,12.94
2017-10-01T10:34:47.709Z,12.99
2017-10-01T10:35:57.969Z,12.91
2017-10-01T10:37:07.917Z,12.99
2017-10-01T10:38:18.177Z,12.99
2017-10-01T10:39:28.109Z,13.05
2017-10-01T10:40:38.369Z,13.13
2017-10-01T10:41:48.631Z,13.13
2017-10-01T10:42:58.899Z,13.12
2017-10-01T10:44:08.529Z,13.23
2017-10-01T10:45:18.785Z,13.21
2017-10-01T10:46:29.047Z,13.28
2017-10-01T10:47:38.349Z,13.17
2017-10-01T10:48:47.974Z,13.23
2017-10-01T10:49:58.249Z,13.21
2017-10-01T10:51:08.496Z,13.24
2017-10-01T10:52:18.439Z,13.28
2017-10-01T10:53:28.706Z,13.3
2017-10-01T10:54:38.646Z,13.43
2017-10-01T10:55:48.604Z,13.43
2017-10-01T10:56:58.880Z,13.42
2017-10-01T10:58:09.154Z,13.5
2017-10-01T10:59:19.402Z,13.46
2017-10-01T11:00:29.654Z,13.52
2017-10-01T11:01:39.597Z,13.57
2017-10-01T11:02:49.537Z,13.65
2017-10-01T11:03:59.780Z,13.6
2017-10-01T11:05:09.731Z,13.62
2017-10-01T11:06:20.022Z,13.64
2017-10-01T11:07:30.290Z,13.68
2017-10-01T11:08:40.550Z,13.64
2017-10-01T11:09:50.798Z,13.78
2017-10-01T11:11:00.737Z,13.78
2017-10-01T11:12:10.990Z,13.83
2017-10-01T11:13:21.239Z,13.89
2017-10-01T11:14:31.173Z,14.03
2017-10-01T11:15:41.437Z,13.87
2017-10-01T11:16:51.689Z,14.05
2017-10-01T11:18:01.957Z,14.03
2017-10-01T11:19:12.215Z,14.01
2017-10-01T11:20:21.833Z,14.01
2017-10-01T11:21:32.101Z,14
2017-10-01T11:22:42.043Z,14.05
2017-10-01T11:23:51.994Z,14.03
2017-10-01T11:25:02.267Z,14.08
2017-10-01T11:26:12.522Z,14.05
2017-10-01T11:27:22.782Z,14
2017-10-01T11:28:33.040Z,14.03
2017-10-01T11:29:43.289Z,14.07
2017-10-01T11:30:53.238Z,14.16
2017-10-01T11:32:03.184Z,14.11
2017-10-01T11:33:13.127Z,14.15
2017-10-01T11:34:23.402Z,14.11
2017-10-01T11:35:33.021Z,14.04
2017-10-01T11:36:42.984Z,14.03
2017-10-01T11:37:53.304Z,14.12
2017-10-01T11:39:03.256Z,14.11
2017-10-01T11:40:13.513Z,14.11
2017-10-01T11:41:23.777Z,14.11
2017-10-01T11:42:34.045Z,14.16
2017-10-01T11:43:43.981Z,14.07
2017-10-01T11:44:54.225Z,14.07
2017-10-01T11:46:04.471Z,14.08
2017-10-01T11:47:14.722Z,13.97
2017-10-01T11:48:24.742Z,13.94
2017-10-01T11:49:35.003Z,13.95
2017-10-01T11:50:44.938Z,13.91
2017-10-01T11:51:55.203Z,14
2017-10-01T11:53:05.460Z,13.98
2017-10-01T11:54:15.725Z,14.01
2017-10-01T11:55:25.674Z,14
2017-10-01T11:56:35.939Z,14.07
2017-10-01T11:57:46.197Z,14.13
2017-10-01T11:58:56.465Z,14.11
2017-10-01T12:00:06.237Z,14.05
2017-10-01T12:01:16.190Z,14.04
2017-10-01T12:02:26.128Z,14.05
2017-10-01T12:03:35.755Z,13.93
2017-10-01T12:04:46.035Z,14.05
2017-10-01T12:05:56.298Z,13.97
2017-10-01T12:07:06.543Z,14.01
2017-10-01T12:08:16.484Z,14.03
2017-10-01T12:09:26.438Z,14.01
2017-10-01T12:10:36.410Z,14.07
2017-10-01T12:11:46.679Z,14.07
2017-10-01T12:12:56.630Z,14.01
2017-10-01T12:14:06.879Z,14.05
2017-10-01T12:15:17.132Z,14.15
2017-10-01T12:16:27.080Z,14.11
2017-10-01T12:17:37.022Z,14.11
2017-10-01T12:18:46.959Z,14.16
2017-10-01T12:19:57.201Z,14.22
2017-10-01T12:21:07.459Z,14.16
2017-10-01T12:22:17.722Z,14.22
2017-10-01T12:23:27.671Z,14.26
2017-10-01T12:24:37.927Z,14.22
2017-10-01T12:25:47.858Z,14.28
2017-10-01T12:26:58.101Z,14.18
2017-10-01T12:28:08.040Z,14.34
2017-10-01T12:29:18.304Z,14.33
2017-10-01T12:30:28.563Z,14.31
2017-10-01T12:31:38.832Z,14.26
2017-10-01T12:32:49.073Z,14.25
2017-10-01T12:33:58.703Z,14.28
2017-10-01T12:35:08.645Z,14.26
2017-10-01T12:36:18.897Z,14.2
2017-10-01T12:37:28.848Z,14.12
2017-10-01T12:38:38.462Z,14.05
2017-10-01T12:39:48.401Z,14.05
2017-10-01T12:40:58.037Z,14
2017-10-01T12:42:07.674Z,13.89
2017-10-01T12:43:17.617Z,13.93
2017-10-01T12:44:27.876Z,13.97
2017-10-01T12:45:37.822Z,14.01
2017-10-01T12:46:48.076Z,13.95
2017-10-01T12:47:58.325Z,13.94
2017-10-01T12:49:08.575Z,13.8
2017-10-01T12:50:18.513Z,13.91
2017-10-01T12:51:28.449Z,13.71
2017-10-01T12:52:38.717Z,13.76
2017-10-01T12:53:48.653Z,13.76
2017-10-01T12:54:58.922Z,13.75
2017-10-01T12:56:09.179Z,13.78
2017-10-01T12:57:19.118Z,13.71
2017-10-01T12:58:29.367Z,13.82
2017-10-01T12:59:39.309Z,13.73
2017-10-01T13:00:49.587Z,13.75
2017-10-01T13:01:59.857Z,13.82
2017-10-01T13:03:10.129Z,13.91
2017-10-01T13:04:20.401Z,13.87
2017-10-01T13:05:30.667Z,13.86
2017-10-01T13:06:40.617Z,13.8
2017-10-01T13:07:50.869Z,13.86
2017-10-01T13:09:00.816Z,13.89
2017-10-01T13:10:11.079Z,13.93
2017-10-01T13:11:21.045Z,13.94
2017-10-01T13:12:31.722Z,14.07
2017-10-01T13:13:41.351Z,14.13
2017-10-01T13:14:51.605Z,14.25
2017-10-01T13:16:01.547Z,14.38
2017-10-01T13:17:11.487Z,14.56
2017-10-01T13:18:21.738Z,14.63
2017-10-01T13:19:31.995Z,14.73
2017-10-01T13:20:41.930Z,14.82
2017-10-01T13:21:52.196Z,14.86
2017-10-01T13:23:02.465Z,14.99
2017-10-01T13:24:12.094Z,15.18
2017-10-01T13:25:22.046Z,15.18
2017-10-01T13:26:31.980Z,15.37
2017-10-01T13:27:42.240Z,15.51
2017-10-01T13:28:52.500Z,15.45
2017-10-01T13:30:02.770Z,15.5
2017-10-01T13:31:12.727Z,15.41
2017-10-01T13:32:22.695Z,15.41
2017-10-01T13:33:32.941Z,15.41
2017-10-01T13:34:43.182Z,15.29
2017-10-01T13:35:53.437Z,15.22
2017-10-01T13:37:03.685Z,15.05
2017-10-01T13:38:13.325Z,14.96
2017-10-01T13:39:23.594Z,14.85
2017-10-01T13:40:33.569Z,14.77
2017-10-01T13:41:43.517Z,14.77
2017-10-01T13:42:53.456Z,14.67
2017-10-01T13:44:03.943Z,14.66
2017-10-01T13:45:14.210Z,14.7
2017-10-01T13:46:24.472Z,14.58
2017-10-01T13:47:34.741Z,14.61
2017-10-01T13:48:45.000Z,14.62
2017-10-01T13:49:55.260Z,14.68
2017-10-01T13:51:05.220Z,14.61
2017-10-01T13:52:15.472Z,14.55
2017-10-01T13:53:25.722Z,14.53
2017-10-01T13:54:35.342Z,14.43
2017-10-01T13:55:45.607Z,14.38
2017-10-01T13:56:55.542Z,14.25
2017-10-01T13:58:05.494Z,14.2
2017-10-01T13:59:15.124Z,14.26
2017-10-01T14:00:25.372Z,14.31
2017-10-01T14:01:35.644Z,14.28
2017-10-01T14:02:45.907Z,14.26
2017-10-01T14:03:55.853Z,14.25
2017-10-01T14:05:05.792Z,14.19
2017-10-01T14:06:15.413Z,14.23
2017-10-01T14:07:25.357Z,14.3
2017-10-01T14:08:35.604Z,14.18
2017-10-01T14:09:45.852Z,14.16
2017-10-01T14:10:55.468Z,14.19
2017-10-01T14:12:05.740Z,14.2
2017-10-01T14:13:16.006Z,14.26
2017-10-01T14:14:26.268Z,14.28
2017-10-01T14:15:36.538Z,14.33
2017-10-01T14:16:46.477Z,14.44
2017-10-01T14:17:56.415Z,14.52
2017-10-01T14:19:06.687Z,14.34
2017-10-01T14:20:16.939Z,14.36
2017-10-01T14:21:26.888Z,14.48
2017-10-01T14:22:37.139Z,14.45
2017-10-01T14:23:47.388Z,14.55
2017-10-01T14:24:57.672Z,14.55
2017-10-01T14:26:07.930Z,14.61
2017-10-01T14:27:18.188Z,14.52
2017-10-01T14:28:28.443Z,14.52
2017-10-01T14:29:38.704Z,14.63
2017-10-01T14:30:48.990Z,14.68
2017-10-01T14:31:59.246Z,14.63
2017-10-01T14:33:09.188Z,14.51
2017-10-01T14:34:19.455Z,14.51
2017-10-01T14:35:29.708Z,14.61
2017-10-01T14:36:39.329Z,14.58
2017-10-01T14:37:49.271Z,14.62
2017-10-01T14:38:59.218Z,14.71
2017-10-01T14:40:09.472Z,14.66
2017-10-01T14:41:19.416Z,14.68
2017-10-01T14:42:29.678Z,14.63
2017-10-01T14:43:39.944Z,14.77
2017-10-01T14:44:50.201Z,14.71
2017-10-01T14:46:00.475Z,14.59
2017-10-01T14:47:10.449Z,14.67
2017-10-01T14:48:20.704Z,14.62
2017-10-01T14:49:30.957Z,14.66
2017-10-01T14:50:41.206Z,14.66
2017-10-01T14:51:51.158Z,14.71
2017-10-01T14:53:01.106Z,14.71
2017-10-01T14:54:11.043Z,14.79
2017-10-01T14:55:20.988Z,14.85
2017-10-01T14:56:31.247Z,14.82
2017-10-01T14:57:41.213Z,14.79
2017-10-01T14:58:51.473Z,14.89
2017-10-01T15:00:01.732Z,14.86
2017-10-01T15:01:11.357Z,14.86
2017-10-01T15:02:21.610Z,14.9
2017-10-01T15:03:31.879Z,14.79
2017-10-01T15:04:41.527Z,14.78
2017-10-01T15:05:51.477Z,14.77